createdAt,value
2018-07-24T00:00:37.430Z,23.13
2018-07-24T00:03:05.468Z,23.05
2018-07-24T00:05:33.491Z,23.02
2018-07-24T00:08:01.525Z,22.98
2018-07-24T00:10:29.556Z,22.97
2018-07-24T00:12:57.594Z,22.96
2018-07-24T00:15:25.619Z,22.93
2018-07-24T00:17:53.636Z,22.90
2018-07-24T00:20:21.676Z,22.86
2018-07-24T00:22:49.692Z,22.85
2018-07-24T00:25:17.711Z,22.82
2018-07-24T00:27:45.735Z,22.80
2018-07-24T00:30:13.775Z,22.76
2018-07-24T00:32:41.799Z,22.71
2018-07-24T00:35:09.838Z,22.69
2018-07-24T00:37:37.888Z,22.67
2018-07-24T00:40:05.937Z,22.65
2018-07-24T00:42:33.980Z,22.63
2018-07-24T00:45:02.181Z,22.59
2018-07-24T00:47:30.251Z,22.56
2018-07-24T00:49:58.290Z,22.50
2018-07-24T00:52:26.308Z,22.43
2018-07-24T00:54:54.345Z,22.41
2018-07-24T00:57:22.392Z,22.36
2018-07-24T00:59:50.419Z,22.32
2018-07-24T01:02:18.463Z,22.27
2018-07-24T01:04:46.504Z,22.18
2018-07-24T01:07:14.532Z,22.11
2018-07-24T01:09:42.567Z,22.11
2018-07-24T01:12:10.596Z,22.12
2018-07-24T01:14:38.644Z,22.09
2018-07-24T01:17:06.669Z,22.05
2018-07-24T01:19:34.685Z,22.00
2018-07-24T01:22:02.736Z,21.99
2018-07-24T01:24:30.803Z,21.99
2018-07-24T01:26:58.828Z,21.98
2018-07-24T01:29:26.860Z,21.96
2018-07-24T01:31:54.889Z,21.93
2018-07-24T01:34:22.935Z,21.89
2018-07-24T01:36:50.975Z,21.84
2018-07-24T01:39:19.009Z,21.81
2018-07-24T01:41:47.069Z,21.79
2018-07-24T01:44:15.253Z,21.77
2018-07-24T01:46:43.283Z,21.73
2018-07-24T01:49:11.304Z,21.71
2018-07-24T01:51:39.343Z,21.71
2018-07-24T01:54:07.363Z,21.69
2018-07-24T01:56:35.404Z,21.68
2018-07-24T01:59:03.696Z,21.66
2018-07-24T02:01:31.718Z,21.66
2018-07-24T02:03:59.734Z,21.64
2018-07-24T02:06:27.773Z,21.61
2018-07-24T02:08:55.792Z,21.60
2018-07-24T02:11:23.814Z,21.57
2018-07-24T02:13:51.868Z,21.57
2018-07-24T02:16:19.915Z,21.56
2018-07-24T02:18:47.960Z,21.54
2018-07-24T02:21:16.016Z,21.51
2018-07-24T02:23:44.018Z,21.50
2018-07-24T02:26:12.046Z,21.45
2018-07-24T02:28:40.069Z,21.41
2018-07-24T02:31:08.134Z,21.38
2018-07-24T02:33:36.161Z,21.36
2018-07-24T02:36:05.027Z,21.33
2018-07-24T02:38:33.060Z,21.31
2018-07-24T02:41:01.088Z,21.30
2018-07-24T02:43:29.120Z,21.24
2018-07-24T02:45:57.157Z,21.22
2018-07-24T02:48:25.184Z,21.21
2018-07-24T02:50:53.228Z,21.21
2018-07-24T02:53:21.259Z,21.20
2018-07-24T02:55:49.316Z,21.20
2018-07-24T02:58:17.353Z,21.18
2018-07-24T03:00:45.396Z,21.18
2018-07-24T03:03:13.597Z,21.19
2018-07-24T03:05:41.629Z,21.20
2018-07-24T03:08:09.669Z,21.19
2018-07-24T03:10:37.696Z,21.18
2018-07-24T03:13:05.759Z,21.18
2018-07-24T03:15:33.778Z,21.14
2018-07-24T03:18:01.814Z,21.10
2018-07-24T03:20:29.866Z,21.04
2018-07-24T03:22:57.897Z,20.99
2018-07-24T03:25:25.929Z,20.94
2018-07-24T03:27:53.981Z,20.91
2018-07-24T03:30:22.006Z,20.88
2018-07-24T03:32:50.080Z,20.82
2018-07-24T03:35:18.105Z,20.76
2018-07-24T03:37:46.144Z,20.74
2018-07-24T03:40:14.196Z,20.73
2018-07-24T03:42:42.225Z,20.71
2018-07-24T03:45:10.297Z,20.67
2018-07-24T03:47:38.325Z,20.63
2018-07-24T03:50:06.352Z,20.64
2018-07-24T03:52:34.389Z,20.61
2018-07-24T03:55:02.457Z,20.57
2018-07-24T03:57:30.474Z,20.54
2018-07-24T03:59:58.497Z,20.53
2018-07-24T04:02:26.597Z,20.52
2018-07-24T04:04:54.574Z,20.52
2018-07-24T04:07:22.609Z,20.54
2018-07-24T04:09:50.648Z,20.51
2018-07-24T04:12:18.677Z,20.51
2018-07-24T04:14:46.706Z,20.50
2018-07-24T04:17:14.732Z,20.49
2018-07-24T04:19:42.768Z,20.52
2018-07-24T04:22:10.812Z,20.54
2018-07-24T04:24:38.833Z,20.55
2018-07-24T04:27:06.944Z,20.55
2018-07-24T04:29:34.978Z,20.58
2018-07-24T04:32:03.025Z,20.60
2018-07-24T04:34:31.060Z,20.63
2018-07-24T04:36:59.089Z,20.65
2018-07-24T04:39:27.296Z,20.70
2018-07-24T04:41:55.341Z,20.76
2018-07-24T04:44:23.372Z,20.79
2018-07-24T04:46:51.406Z,20.82
2018-07-24T04:49:19.461Z,20.83
2018-07-24T04:51:47.505Z,20.85
2018-07-24T04:54:15.541Z,20.86
2018-07-24T04:56:43.597Z,20.85
2018-07-24T04:59:11.874Z,20.89
2018-07-24T05:01:39.916Z,20.92
2018-07-24T05:04:07.992Z,20.93
2018-07-24T05:06:36.049Z,20.96
2018-07-24T05:09:08.636Z,20.96
2018-07-24T05:11:36.664Z,20.98
2018-07-24T05:14:04.737Z,21.04
2018-07-24T05:16:32.782Z,21.10
2018-07-24T05:19:00.846Z,21.15
2018-07-24T05:21:28.864Z,21.22
2018-07-24T05:23:56.930Z,21.26
2018-07-24T05:26:24.973Z,21.30
2018-07-24T05:28:53.010Z,21.37
2018-07-24T05:31:21.097Z,21.41
2018-07-24T05:33:49.122Z,21.43
2018-07-24T05:36:17.147Z,21.48
2018-07-24T05:38:45.200Z,21.54
2018-07-24T05:41:13.234Z,21.59
2018-07-24T05:43:41.297Z,21.66
2018-07-24T05:46:09.331Z,21.70
2018-07-24T05:48:37.437Z,21.75
2018-07-24T05:51:05.446Z,21.80
2018-07-24T05:53:33.502Z,21.84
2018-07-24T05:56:01.668Z,21.91
2018-07-24T05:58:29.814Z,21.98
2018-07-24T06:00:57.873Z,22.05
2018-07-24T06:03:25.956Z,22.15
2018-07-24T06:05:55.012Z,22.27
2018-07-24T06:08:23.071Z,22.44
2018-07-24T06:10:51.106Z,22.60
2018-07-24T06:13:19.157Z,22.79
2018-07-24T06:15:47.216Z,23.03
2018-07-24T06:18:15.265Z,23.25
2018-07-24T06:20:43.305Z,23.50
2018-07-24T06:23:11.369Z,23.74
2018-07-24T06:25:39.401Z,23.97
2018-07-24T06:28:07.863Z,24.21
2018-07-24T06:30:35.890Z,24.48
2018-07-24T06:33:04.975Z,24.72
2018-07-24T06:35:33.000Z,25.00
2018-07-24T06:38:01.073Z,25.28
2018-07-24T06:40:29.097Z,25.56
2018-07-24T06:42:57.137Z,25.85
2018-07-24T06:45:25.185Z,26.17
2018-07-24T06:47:53.237Z,26.44
2018-07-24T06:50:21.276Z,26.74
2018-07-24T06:52:49.324Z,26.96
2018-07-24T06:55:17.420Z,27.23
2018-07-24T06:57:45.441Z,27.48
2018-07-24T07:00:13.475Z,27.69
2018-07-24T07:02:43.531Z,27.92
2018-07-24T07:05:11.650Z,28.22
2018-07-24T07:07:40.114Z,28.44
2018-07-24T07:10:08.248Z,28.64
2018-07-24T07:12:36.264Z,28.91
2018-07-24T07:15:05.621Z,29.17
2018-07-24T07:17:33.680Z,29.43
2018-07-24T07:20:01.729Z,29.68
2018-07-24T07:22:29.742Z,29.96
2018-07-24T07:24:57.797Z,30.16
2018-07-24T07:27:25.816Z,30.29
2018-07-24T07:29:53.857Z,30.51
2018-07-24T07:32:21.968Z,30.71
2018-07-24T07:34:49.993Z,30.95
2018-07-24T07:37:18.032Z,31.29
2018-07-24T07:39:46.065Z,31.53
2018-07-24T07:42:14.151Z,31.83
2018-07-24T07:44:42.221Z,32.08
2018-07-24T07:47:10.267Z,32.21
2018-07-24T07:49:38.281Z,32.01
2018-07-24T07:52:06.474Z,32.07
2018-07-24T07:54:34.517Z,31.96
2018-07-24T07:57:02.560Z,32.07
2018-07-24T07:59:30.582Z,32.13
2018-07-24T08:01:58.604Z,32.24
2018-07-24T08:04:26.674Z,32.47
2018-07-24T08:06:54.656Z,32.72
2018-07-24T08:09:22.701Z,32.92
2018-07-24T08:11:50.735Z,33.16
2018-07-24T08:14:18.769Z,33.52
2018-07-24T08:16:46.797Z,33.67
2018-07-24T08:19:14.866Z,33.54
2018-07-24T08:21:43.037Z,33.52
2018-07-24T08:24:11.178Z,33.68
2018-07-24T08:26:39.304Z,34.02
2018-07-24T08:29:07.457Z,34.32
2018-07-24T08:31:35.486Z,34.49
2018-07-24T08:34:03.573Z,34.64
2018-07-24T08:36:31.604Z,34.85
2018-07-24T08:38:59.634Z,34.97
2018-07-24T08:41:27.701Z,35.06
2018-07-24T08:43:55.712Z,35.13
2018-07-24T08:46:23.766Z,35.23
2018-07-24T08:48:51.796Z,35.24
2018-07-24T08:51:19.828Z,35.34
2018-07-24T08:53:48.110Z,35.49
2018-07-24T08:56:15.893Z,35.53
2018-07-24T08:58:43.919Z,35.72
2018-07-24T09:01:11.942Z,35.87
2018-07-24T09:03:40.009Z,35.94
2018-07-24T09:06:08.083Z,35.99
2018-07-24T09:08:36.108Z,36.08
2018-07-24T09:11:04.705Z,36.20
2018-07-24T09:13:32.732Z,36.38
2018-07-24T09:16:00.769Z,36.51
2018-07-24T09:18:28.789Z,36.55
2018-07-24T09:20:56.834Z,36.60
2018-07-24T09:23:25.001Z,36.55
2018-07-24T09:25:53.029Z,36.43
2018-07-24T09:28:21.054Z,36.50
2018-07-24T09:30:49.073Z,36.60
2018-07-24T09:33:17.084Z,36.43
2018-07-24T09:35:45.100Z,36.33
2018-07-24T09:38:13.125Z,36.39
2018-07-24T09:40:41.151Z,36.44
2018-07-24T09:43:09.174Z,36.61
2018-07-24T09:45:37.221Z,36.60
2018-07-24T09:48:05.257Z,36.40
2018-07-24T09:50:33.281Z,36.48
2018-07-24T09:53:01.329Z,36.63
2018-07-24T09:55:29.369Z,36.74
2018-07-24T09:57:57.396Z,36.83
2018-07-24T10:00:30.687Z,36.95
2018-07-24T10:02:58.736Z,37.10
2018-07-24T10:05:26.839Z,37.20
2018-07-24T10:07:54.825Z,37.11
2018-07-24T10:10:22.870Z,37.14
2018-07-24T10:12:51.039Z,37.20
2018-07-24T10:15:18.952Z,37.19
2018-07-24T10:17:47.024Z,37.36
2018-07-24T10:20:15.093Z,37.34
2018-07-24T10:22:43.192Z,37.41
2018-07-24T10:25:11.460Z,37.17
2018-07-24T10:27:46.231Z,37.30
2018-07-24T10:30:14.473Z,37.42
2018-07-24T10:32:42.580Z,37.27
2018-07-24T10:35:10.597Z,37.06
2018-07-24T10:37:38.669Z,36.86
2018-07-24T10:40:06.760Z,36.48
2018-07-24T10:42:34.838Z,36.37
2018-07-24T10:45:02.875Z,36.44
2018-07-24T10:47:30.946Z,36.75
2018-07-24T10:49:58.992Z,36.99
2018-07-24T10:52:27.020Z,37.13
2018-07-24T10:54:55.089Z,37.43
2018-07-24T10:57:23.121Z,37.61
2018-07-24T10:59:51.136Z,37.73
2018-07-24T11:02:19.181Z,37.78
2018-07-24T11:04:47.208Z,37.84
2018-07-24T11:07:15.241Z,37.82
2018-07-24T11:09:43.351Z,37.96
2018-07-24T11:12:11.381Z,38.25
2018-07-24T11:14:39.406Z,38.35
2018-07-24T11:17:07.533Z,37.98
2018-07-24T11:19:35.552Z,38.00
2018-07-24T11:22:03.780Z,38.11
2018-07-24T11:24:31.681Z,37.96
2018-07-24T11:27:02.509Z,37.68
2018-07-24T11:29:30.540Z,37.67
2018-07-24T11:31:58.622Z,37.69
2018-07-24T11:34:26.648Z,37.88
2018-07-24T11:36:54.687Z,38.08
2018-07-24T11:39:22.797Z,38.15
2018-07-24T11:41:50.928Z,38.26
2018-07-24T11:44:19.020Z,38.34
2018-07-24T11:46:47.048Z,38.11
2018-07-24T11:49:21.780Z,38.03
2018-07-24T11:51:49.844Z,38.19
2018-07-24T11:54:17.840Z,38.30
2018-07-24T11:56:45.877Z,38.36
2018-07-24T11:59:13.926Z,38.46
2018-07-24T12:01:42.960Z,38.65
2018-07-24T12:04:11.025Z,38.51
2018-07-24T12:06:39.107Z,38.65
2018-07-24T12:09:09.370Z,38.59
2018-07-24T12:11:37.455Z,38.76
2018-07-24T12:14:05.507Z,38.84
2018-07-24T12:16:33.564Z,39.07
2018-07-24T12:19:01.593Z,39.00
2018-07-24T12:21:29.758Z,39.09
2018-07-24T12:23:57.774Z,38.90
2018-07-24T12:26:25.797Z,38.87
2018-07-24T12:28:53.818Z,38.81
2018-07-24T12:31:21.848Z,38.88
2018-07-24T12:33:49.878Z,38.91
2018-07-24T12:36:17.965Z,38.84
2018-07-24T12:38:46.275Z,38.76
2018-07-24T12:41:14.317Z,38.45
2018-07-24T12:43:42.364Z,38.52
2018-07-24T12:46:10.472Z,38.58
2018-07-24T12:48:38.596Z,38.54
2018-07-24T12:51:06.737Z,38.64
2018-07-24T12:53:34.785Z,38.61
2018-07-24T12:56:02.822Z,38.73
2018-07-24T12:58:30.839Z,38.82
2018-07-24T13:00:58.876Z,38.95
2018-07-24T13:03:26.992Z,38.97
2018-07-24T13:05:54.952Z,38.98
2018-07-24T13:08:23.025Z,39.15
2018-07-24T13:10:51.074Z,39.21
2018-07-24T13:13:19.134Z,39.11
2018-07-24T13:15:47.160Z,39.19
2018-07-24T13:18:15.190Z,39.18
2018-07-24T13:20:43.389Z,38.99
2018-07-24T13:23:11.420Z,39.01
2018-07-24T13:25:39.457Z,38.92
2018-07-24T13:28:07.521Z,38.70
2018-07-24T13:30:35.560Z,38.65
2018-07-24T13:33:04.584Z,38.79
2018-07-24T13:35:32.633Z,39.06
2018-07-24T13:38:00.695Z,39.09
2018-07-24T13:40:28.793Z,38.94
2018-07-24T13:42:56.830Z,38.94
2018-07-24T13:45:24.857Z,39.08
2018-07-24T13:47:52.965Z,39.03
2018-07-24T13:50:21.056Z,39.10
2018-07-24T13:52:49.251Z,39.04
2018-07-24T13:55:17.390Z,39.08
2018-07-24T13:57:45.420Z,39.03
2018-07-24T14:00:13.445Z,38.92
2018-07-24T14:02:41.478Z,38.93
2018-07-24T14:05:09.512Z,38.73
2018-07-24T14:07:37.537Z,38.59
2018-07-24T14:10:05.996Z,38.55
2018-07-24T14:12:34.097Z,38.51
2018-07-24T14:15:02.163Z,38.60
2018-07-24T14:17:30.189Z,38.54
2018-07-24T14:19:58.229Z,38.41
2018-07-24T14:22:26.256Z,38.27
2018-07-24T14:24:54.312Z,38.21
2018-07-24T14:27:22.345Z,38.22
2018-07-24T14:29:50.777Z,38.28
2018-07-24T14:32:18.822Z,38.17
2018-07-24T14:34:46.861Z,38.20
2018-07-24T14:37:14.887Z,38.32
2018-07-24T14:39:43.082Z,38.25
2018-07-24T14:42:11.106Z,38.24
2018-07-24T14:44:39.365Z,38.26
2018-07-24T14:47:07.443Z,38.24
2018-07-24T14:49:35.476Z,38.25
2018-07-24T14:52:03.571Z,38.23
2018-07-24T14:54:31.609Z,38.21
2018-07-24T14:56:59.696Z,38.28
2018-07-24T14:59:27.876Z,38.32
2018-07-24T15:01:55.921Z,38.19
2018-07-24T15:04:23.965Z,38.08
2018-07-24T15:06:52.016Z,37.98
2018-07-24T15:09:20.045Z,37.98
2018-07-24T15:11:48.089Z,37.84
2018-07-24T15:14:16.147Z,37.76
2018-07-24T15:16:44.195Z,37.62
2018-07-24T15:19:12.223Z,37.70
2018-07-24T15:21:40.269Z,37.81
2018-07-24T15:24:08.302Z,37.90
2018-07-24T15:26:36.358Z,37.99
2018-07-24T15:29:05.152Z,38.08
2018-07-24T15:31:33.181Z,38.11
2018-07-24T15:34:01.329Z,38.19
2018-07-24T15:36:29.396Z,38.21
2018-07-24T15:38:57.427Z,38.11
2018-07-24T15:41:25.505Z,38.02
2018-07-24T15:43:53.564Z,37.98
2018-07-24T15:46:21.628Z,37.95
2018-07-24T15:48:49.661Z,37.89
2018-07-24T15:51:17.712Z,37.70
2018-07-24T15:53:45.778Z,37.61
2018-07-24T15:56:13.809Z,37.59
2018-07-24T15:58:41.869Z,37.65
2018-07-24T16:01:09.916Z,37.54
2018-07-24T16:03:38.117Z,37.43
2018-07-24T16:06:06.155Z,37.43
2018-07-24T16:08:34.581Z,37.38
2018-07-24T16:13:26.624Z,37.23
2018-07-24T16:15:54.714Z,37.18
2018-07-24T16:18:22.805Z,37.16
2018-07-24T16:20:50.877Z,37.08
2018-07-24T16:23:18.952Z,37.00
2018-07-24T16:25:46.977Z,36.96
2018-07-24T16:28:15.156Z,36.90
2018-07-24T16:30:43.225Z,36.85
2018-07-24T16:33:11.575Z,36.82
2018-07-24T16:35:39.706Z,36.76
2018-07-24T16:38:07.730Z,36.75
2018-07-24T16:40:35.807Z,36.62
2018-07-24T16:43:04.820Z,36.45
2018-07-24T16:45:32.881Z,36.40
2018-07-24T16:48:00.904Z,36.39
2018-07-24T16:50:28.934Z,36.30
2018-07-24T16:52:56.969Z,36.21
2018-07-24T16:55:24.985Z,35.98
2018-07-24T16:57:53.217Z,35.79
2018-07-24T17:00:21.206Z,35.65
2018-07-24T17:02:49.233Z,35.58
2018-07-24T17:05:17.244Z,35.43
2018-07-24T17:07:45.278Z,35.37
2018-07-24T17:10:13.329Z,35.33
2018-07-24T17:12:41.355Z,35.30
2018-07-24T17:15:09.401Z,35.30
2018-07-24T17:17:37.614Z,35.29
2018-07-24T17:20:05.667Z,35.27
2018-07-24T17:22:33.727Z,35.25
2018-07-24T17:25:01.898Z,35.21
2018-07-24T17:27:30.085Z,35.20
2018-07-24T17:29:58.188Z,35.15
2018-07-24T17:32:26.418Z,35.05
2018-07-24T17:34:54.449Z,34.98
2018-07-24T17:37:22.597Z,34.94
2018-07-24T17:39:50.645Z,34.90
2018-07-24T17:42:18.671Z,34.81
2018-07-24T17:44:46.708Z,34.74
2018-07-24T17:47:14.742Z,34.74
2018-07-24T17:49:42.780Z,34.74
2018-07-24T17:52:10.856Z,34.68
2018-07-24T17:54:38.886Z,34.63
2018-07-24T17:57:06.920Z,34.60
2018-07-24T17:59:34.950Z,34.54
2018-07-24T18:02:03.005Z,34.47
2018-07-24T18:04:31.042Z,34.43
2018-07-24T18:06:59.153Z,34.35
2018-07-24T18:09:27.200Z,34.29
2018-07-24T18:11:55.296Z,34.24
2018-07-24T18:14:23.331Z,34.19
2018-07-24T18:16:51.370Z,34.16
2018-07-24T18:19:19.418Z,34.09
2018-07-24T18:21:47.473Z,34.02
2018-07-24T18:24:15.924Z,33.93
2018-07-24T18:26:43.960Z,33.87
2018-07-24T18:29:11.987Z,33.80
2018-07-24T18:31:40.053Z,33.72
2018-07-24T18:34:08.077Z,33.62
2018-07-24T18:36:36.106Z,33.53
2018-07-24T18:39:07.620Z,33.43
2018-07-24T18:41:36.002Z,33.35
2018-07-24T18:44:04.705Z,33.23
2018-07-24T18:46:32.878Z,33.14
2018-07-24T18:49:01.159Z,33.04
2018-07-24T18:51:29.222Z,32.95
2018-07-24T18:53:57.254Z,32.84
2018-07-24T18:56:25.311Z,32.71
2018-07-24T18:58:53.444Z,32.57
2018-07-24T19:01:21.430Z,32.45
2018-07-24T19:03:49.489Z,32.33
2018-07-24T19:06:17.534Z,32.19
2018-07-24T19:08:45.582Z,32.04
2018-07-24T19:11:13.635Z,31.86
2018-07-24T19:13:41.676Z,31.68
2018-07-24T19:16:09.700Z,31.57
2018-07-24T19:18:37.737Z,31.48
2018-07-24T19:21:05.772Z,31.38
2018-07-24T19:23:33.825Z,31.26
2018-07-24T19:26:01.917Z,31.14
2018-07-24T19:28:29.962Z,31.01
2018-07-24T19:30:58.207Z,30.87
2018-07-24T19:33:26.140Z,30.71
2018-07-24T19:35:54.178Z,30.56
2018-07-24T19:38:22.382Z,30.43
2018-07-24T19:40:50.421Z,30.32
2018-07-24T19:43:18.622Z,30.21
2018-07-24T19:45:46.680Z,30.11
2018-07-24T19:48:15.013Z,29.99
2018-07-24T19:50:43.085Z,29.92
2018-07-24T19:53:11.124Z,29.82
2018-07-24T19:55:39.181Z,29.63
2018-07-24T19:58:07.252Z,29.48
2018-07-24T20:00:35.299Z,29.43
2018-07-24T20:03:03.358Z,29.35
2018-07-24T20:05:31.398Z,29.24
2018-07-24T20:07:59.466Z,28.97
2018-07-24T20:10:27.522Z,28.94
2018-07-24T20:12:55.555Z,28.94
2018-07-24T20:15:23.605Z,28.90
2018-07-24T20:17:51.671Z,28.89
2018-07-24T20:20:19.738Z,28.89
2018-07-24T20:22:47.851Z,28.90
2018-07-24T20:25:15.800Z,28.87
2018-07-24T20:27:43.852Z,28.82
2018-07-24T20:30:11.888Z,28.81
2018-07-24T20:32:39.934Z,28.72
2018-07-24T20:35:08.345Z,28.71
2018-07-24T20:37:36.305Z,28.70
2018-07-24T20:40:05.585Z,28.67
2018-07-24T20:42:33.657Z,28.65
2018-07-24T20:45:01.750Z,28.61
2018-07-24T20:47:29.824Z,28.52
2018-07-24T20:49:57.860Z,28.52
2018-07-24T20:52:25.949Z,28.49
2018-07-24T20:54:54.013Z,28.47
2018-07-24T20:57:22.041Z,28.42
2018-07-24T20:59:50.101Z,28.38
2018-07-24T21:02:18.158Z,28.39
2018-07-24T21:04:46.207Z,28.35
2018-07-24T21:07:14.248Z,28.26
2018-07-24T21:09:42.298Z,28.23
2018-07-24T21:12:10.360Z,28.17
2018-07-24T21:14:38.408Z,28.10
2018-07-24T21:17:06.512Z,28.05
2018-07-24T21:19:34.538Z,27.99
2018-07-24T21:22:02.626Z,27.94
2018-07-24T21:24:30.629Z,27.91
2018-07-24T21:26:58.646Z,27.85
2018-07-24T21:29:26.725Z,27.81
2018-07-24T21:31:54.766Z,27.78
2018-07-24T21:34:22.788Z,27.76
2018-07-24T21:36:50.840Z,27.75
2018-07-24T21:39:18.876Z,27.73
2018-07-24T21:41:46.911Z,27.67
2018-07-24T21:44:14.960Z,27.63
2018-07-24T21:46:43.000Z,27.51
2018-07-24T21:49:11.088Z,27.45
2018-07-24T21:51:39.081Z,27.40
2018-07-24T21:54:07.140Z,27.37
2018-07-24T21:56:35.197Z,27.30
2018-07-24T21:59:03.652Z,27.25
2018-07-24T22:01:31.677Z,27.13
2018-07-24T22:04:06.394Z,27.13
2018-07-24T22:06:34.514Z,27.09
2018-07-24T22:09:02.673Z,27.03
2018-07-24T22:11:30.605Z,26.91
2018-07-24T22:13:58.648Z,26.89
2018-07-24T22:16:26.733Z,26.86
2018-07-24T22:18:55.001Z,26.81
2018-07-24T22:21:23.072Z,26.71
2018-07-24T22:23:51.095Z,26.67
2018-07-24T22:26:19.140Z,26.63
2018-07-24T22:28:47.173Z,26.53
2018-07-24T22:31:15.213Z,26.49
2018-07-24T22:33:43.268Z,26.43
2018-07-24T22:36:11.304Z,26.44
2018-07-24T22:38:39.357Z,26.42
2018-07-24T22:41:07.390Z,26.39
2018-07-24T22:43:35.432Z,26.42
2018-07-24T22:46:03.468Z,26.44
2018-07-24T22:48:31.491Z,26.43
2018-07-24T22:50:59.513Z,26.40
2018-07-24T22:53:27.532Z,26.39
2018-07-24T22:55:57.397Z,26.35
2018-07-24T22:58:25.438Z,26.32
2018-07-24T23:00:53.906Z,26.28
2018-07-24T23:03:21.930Z,26.22
2018-07-24T23:05:50.200Z,26.13
2018-07-24T23:08:18.218Z,26.05
2018-07-24T23:10:46.501Z,25.99
2018-07-24T23:13:14.540Z,25.96
2018-07-24T23:15:42.553Z,25.96
2018-07-24T23:18:10.581Z,25.91
2018-07-24T23:20:38.648Z,25.87
2018-07-24T23:23:06.844Z,25.81
2018-07-24T23:25:34.886Z,25.78
2018-07-24T23:28:02.940Z,25.70
2018-07-24T23:30:30.994Z,25.64
2018-07-24T23:32:59.033Z,25.58
2018-07-24T23:35:27.072Z,25.56
2018-07-24T23:37:55.103Z,25.47
2018-07-24T23:40:23.144Z,25.45
2018-07-24T23:42:51.208Z,25.40
2018-07-24T23:45:19.240Z,25.33
2018-07-24T23:47:47.274Z,25.30
2018-07-24T23:50:15.306Z,25.33
2018-07-24T23:52:43.340Z,25.33
2018-07-24T23:55:11.376Z,25.30
2018-07-24T23:57:39.417Z,25.27
